Time;durP1;ratioP1;P1;durP2;ratioP2;P2;SDS_P1;SDS_P2;PMS_P1;PMS_P2;Temp;Humidity;BMP_temperature;BMP_pressure;BME280_temperature;BME280_humidity;BME280_pressure;Samples;Min_cycle;Max_cycle;Signal;HPM_P1;HPM_P2
2021/03/31 00:01:52;;;;;;;20.63;12.20;;;8.80;99.90;;;;;;5020049;28;20182;-81
2021/03/31 00:04:17;;;;;;;22.77;12.50;;;8.70;99.90;;;;;;5019963;28;20178;-81
2021/03/31 00:06:43;;;;;;;22.30;12.10;;;8.70;99.90;;;;;;5020949;28;20186;-82
2021/03/31 00:09:09;;;;;;;24.53;13.10;;;8.70;99.90;;;;;;5023933;28;20350;-81
2021/03/31 00:11:35;;;;;;;20.27;12.77;;;8.60;99.90;;;;;;5022082;28;20174;-82
2021/03/31 00:14:00;;;;;;;18.67;12.03;;;8.60;99.90;;;;;;5020059;28;20182;-82
2021/03/31 00:16:26;;;;;;;19.37;12.63;;;8.60;99.90;;;;;;5019765;28;20178;-82
2021/03/31 00:18:51;;;;;;;21.87;13.13;;;8.60;99.90;;;;;;5019888;28;20208;-81
2021/03/31 00:21:17;;;;;;;19.67;12.73;;;8.60;99.90;;;;;;5020316;28;20179;-82
2021/03/31 00:23:44;;;;;;;19.80;12.30;;;8.50;99.90;;;;;;5019980;28;20190;-82
2021/03/31 00:26:09;;;;;;;18.53;11.87;;;8.50;99.90;;;;;;5036633;28;20174;-82
2021/03/31 00:28:35;;;;;;;19.07;11.87;;;8.50;99.90;;;;;;5020068;28;20267;-82
2021/03/31 00:31:01;;;;;;;19.13;12.57;;;8.50;99.90;;;;;;5020537;28;20178;-82
2021/03/31 00:33:26;;;;;;;21.77;12.23;;;8.40;99.90;;;;;;5020761;28;20695;-82
2021/03/31 00:35:52;;;;;;;20.33;12.57;;;8.50;99.90;;;;;;5020234;28;20198;-82
2021/03/31 00:38:18;;;;;;;19.20;11.90;;;8.50;99.90;;;;;;5020508;28;20252;-82
2021/03/31 00:40:48;;;;;;;18.43;11.57;;;8.40;99.90;;;;;;5020508;28;20661;-82
2021/03/31 00:43:14;;;;;;;21.93;12.30;;;8.40;99.90;;;;;;5020873;28;20624;-82
2021/03/31 00:45:40;;;;;;;19.23;11.33;;;8.30;99.90;;;;;;5020540;28;20182;-82
2021/03/31 00:48:06;;;;;;;18.87;11.30;;;8.30;99.90;;;;;;5020425;28;20234;-82
2021/03/31 00:50:32;;;;;;;20.67;12.27;;;8.20;99.90;;;;;;5020524;28;20186;-82
2021/03/31 00:52:59;;;;;;;22.00;12.53;;;8.20;99.90;;;;;;5020669;28;20189;-82
2021/03/31 00:55:26;;;;;;;20.17;11.37;;;8.10;99.90;;;;;;5020580;28;20186;-82
2021/03/31 00:57:52;;;;;;;19.20;11.30;;;8.10;99.90;;;;;;5020272;28;20682;-82
2021/03/31 01:00:18;;;;;;;23.60;13.10;;;8.10;99.90;;;;;;5021360;28;20265;-81
2021/03/31 01:02:44;;;;;;;19.40;11.60;;;8.00;99.90;;;;;;5021654;28;20182;-80
2021/03/31 01:05:12;;;;;;;19.47;11.87;;;8.00;99.90;;;;;;5021479;28;20178;-80
2021/03/31 01:07:38;;;;;;;21.77;11.57;;;8.00;99.90;;;;;;5021462;28;20185;-81
2021/03/31 01:10:04;;;;;;;21.27;11.40;;;8.00;99.90;;;;;;5021174;28;20205;-81
2021/03/31 01:12:45;;;;;;;21.77;11.87;;;7.90;99.90;;;;;;5020700;28;20182;-83
2021/03/31 01:15:14;;;;;;;17.47;11.90;;;7.90;99.90;;;;;;5021233;28;20268;-82
2021/03/31 01:17:45;;;;;;;18.40;11.63;;;7.80;99.90;;;;;;5053659;28;20245;-84
2021/03/31 01:20:29;;;;;;;18.30;11.53;;;7.80;99.90;;;;;;5037022;28;20182;-82
2021/03/31 01:23:18;;;;;;;17.70;11.40;;;7.80;99.90;;;;;;5053521;28;20183;-80
2021/03/31 01:26:10;;;;;;;19.87;11.10;;;7.80;99.90;;;;;;5053111;28;20182;-82
2021/03/31 01:28:48;;;;;;;17.83;11.17;;;7.80;99.90;;;;;;5036421;28;20212;-80
2021/03/31 01:31:31;;;;;;;18.77;11.70;;;7.80;99.90;;;;;;5052326;28;20273;-80
2021/03/31 01:34:19;;;;;;;20.40;12.27;;;7.70;99.90;;;;;;5020543;28;20256;-80
2021/03/31 01:36:44;;;;;;;23.87;12.23;;;7.70;99.90;;;;;;5051446;28;20229;-80
2021/03/31 01:39:10;;;;;;;20.10;12.20;;;7.70;99.90;;;;;;5018274;28;20237;-82
2021/03/31 01:41:36;;;;;;;19.83;12.30;;;7.70;99.90;;;;;;5019677;28;20179;-81
2021/03/31 01:44:02;;;;;;;20.53;12.53;;;7.70;99.90;;;;;;5019114;28;20182;-81
2021/03/31 01:46:29;;;;;;;21.43;12.20;;;7.70;99.90;;;;;;5018812;28;20185;-80
2021/03/31 01:48:55;;;;;;;19.43;12.57;;;7.60;99.90;;;;;;5019251;28;20206;-81
2021/03/31 01:51:21;;;;;;;18.43;12.07;;;7.60;99.90;;;;;;5018986;28;20208;-81
2021/03/31 01:53:47;;;;;;;22.20;12.17;;;7.60;99.90;;;;;;5019480;28;20193;-82
2021/03/31 01:56:12;;;;;;;22.30;12.33;;;7.50;99.90;;;;;;5019308;28;20190;-81
2021/03/31 01:58:38;;;;;;;19.47;11.97;;;7.50;99.90;;;;;;5019184;28;20218;-80
2021/03/31 02:01:03;;;;;;;18.30;12.07;;;7.50;99.90;;;;;;5018323;28;20535;-80
2021/03/31 02:03:30;;;;;;;22.57;13.27;;;7.50;99.90;;;;;;5018493;28;20235;-80
2021/03/31 02:05:56;;;;;;;24.07;13.40;;;7.50;99.90;;;;;;5017800;28;20541;-80
2021/03/31 02:08:22;;;;;;;22.83;13.80;;;7.40;99.90;;;;;;5018533;28;20206;-81
2021/03/31 02:10:49;;;;;;;24.73;13.53;;;7.40;99.90;;;;;;5035739;28;20182;-81
2021/03/31 02:13:14;;;;;;;23.27;13.10;;;7.30;99.90;;;;;;5018070;28;20662;-81
2021/03/31 02:15:40;;;;;;;19.87;12.60;;;7.30;99.90;;;;;;5017696;28;20280;-81
2021/03/31 02:18:08;;;;;;;23.13;13.83;;;7.30;99.90;;;;;;5017623;28;20556;-81
2021/03/31 02:20:34;;;;;;;22.20;13.30;;;7.20;99.90;;;;;;5017795;28;20186;-81
2021/03/31 02:22:59;;;;;;;21.13;12.53;;;7.20;99.90;;;;;;5017979;28;20181;-81
2021/03/31 02:25:25;;;;;;;20.10;12.63;;;7.20;99.90;;;;;;5017761;28;20530;-81
2021/03/31 02:27:51;;;;;;;20.40;13.03;;;7.20;99.90;;;;;;5017674;28;20308;-81
2021/03/31 02:30:19;;;;;;;21.10;12.37;;;7.10;99.90;;;;;;5017969;28;20350;-81
2021/03/31 02:32:46;;;;;;;19.70;12.57;;;7.10;99.90;;;;;;5017987;28;20530;-81
2021/03/31 02:35:12;;;;;;;23.73;13.43;;;7.10;99.90;;;;;;5017444;28;20182;-81
2021/03/31 02:37:38;;;;;;;19.60;12.13;;;7.00;99.90;;;;;;5017622;28;20698;-80
2021/03/31 02:40:04;;;;;;;21.57;12.70;;;7.10;99.90;;;;;;5017571;28;20194;-81
2021/03/31 02:42:30;;;;;;;24.57;13.40;;;7.10;99.90;;;;;;5017548;28;20182;-81
2021/03/31 02:44:56;;;;;;;21.73;12.33;;;7.00;99.90;;;;;;5017339;28;20192;-81
2021/03/31 02:47:30;;;;;;;21.43;12.73;;;6.90;99.90;;;;;;5017569;28;20194;-81
2021/03/31 02:49:58;;;;;;;20.67;12.97;;;6.90;99.90;;;;;;5018695;28;20198;-81
2021/03/31 02:52:23;;;;;;;21.27;13.10;;;6.90;99.90;;;;;;5023295;28;20190;-82
2021/03/31 02:54:49;;;;;;;21.90;12.63;;;6.90;99.90;;;;;;5036115;28;20217;-81
2021/03/31 02:57:15;;;;;;;21.87;13.47;;;6.90;99.90;;;;;;5021126;28;20201;-80
2021/03/31 02:59:41;;;;;;;20.90;12.47;;;6.80;99.90;;;;;;5020880;28;20197;-79
2021/03/31 03:02:08;;;;;;;22.30;13.57;;;6.80;99.90;;;;;;5020863;28;20702;-81
2021/03/31 03:30:19;;;;;;;22.33;13.27;;;6.70;99.90;;;;;;5069336;22;20240;-80
2021/03/31 03:32:54;;;;;;;21.67;13.33;;;6.50;99.90;;;;;;5005127;28;20177;-80
2021/03/31 03:35:22;;;;;;;25.43;13.57;;;6.50;99.90;;;;;;5017361;28;20647;-80
2021/03/31 03:37:48;;;;;;;17.97;11.90;;;6.40;99.90;;;;;;5023684;28;20210;-80
2021/03/31 03:40:15;;;;;;;20.70;13.27;;;6.40;99.90;;;;;;5024017;28;20220;-80
2021/03/31 03:42:41;;;;;;;19.27;12.63;;;6.40;99.90;;;;;;5040724;28;20551;-80
2021/03/31 03:45:07;;;;;;;22.20;13.30;;;6.30;99.90;;;;;;5039958;28;20173;-80
2021/03/31 03:47:32;;;;;;;22.83;13.37;;;6.30;99.90;;;;;;5039931;28;20614;-80
2021/03/31 03:49:59;;;;;;;22.03;13.63;;;6.40;99.90;;;;;;5056523;28;20256;-80
2021/03/31 03:52:24;;;;;;;22.70;13.37;;;6.30;99.90;;;;;;5039545;28;20291;-80
2021/03/31 03:54:53;;;;;;;23.97;14.00;;;6.30;99.90;;;;;;5040013;28;20688;-80
2021/03/31 03:57:26;;;;;;;23.00;13.17;;;6.30;99.90;;;;;;5039765;28;20679;-80
2021/03/31 03:59:52;;;;;;;22.73;13.37;;;6.20;99.90;;;;;;5039622;28;20199;-80
2021/03/31 04:02:18;;;;;;;23.90;13.73;;;6.20;99.90;;;;;;5039423;28;20658;-80
2021/03/31 04:04:43;;;;;;;24.93;14.00;;;6.10;99.90;;;;;;5039465;28;20264;-80
2021/03/31 04:07:09;;;;;;;22.13;13.93;;;6.10;99.90;;;;;;5039359;28;20213;-80
2021/03/31 04:09:34;;;;;;;21.90;13.80;;;6.10;99.90;;;;;;5056114;28;20257;-80
2021/03/31 04:12:00;;;;;;;22.63;14.30;;;6.10;99.90;;;;;;5039382;28;20273;-80
2021/03/31 04:14:25;;;;;;;22.40;13.23;;;6.00;99.90;;;;;;5039979;28;20180;-80
2021/03/31 04:16:53;;;;;;;23.63;14.20;;;6.00;99.90;;;;;;5039196;28;20191;-80
2021/03/31 04:22:35;;;;;;;22.37;13.43;;;5.90;99.90;;;;;;4993915;26;20306;-80
2021/03/31 04:25:01;;;;;;;22.33;13.77;;;5.90;99.90;;;;;;4993888;28;20215;-79
2021/03/31 04:27:27;;;;;;;20.87;12.83;;;6.00;99.90;;;;;;4995100;28;20183;-80
2021/03/31 04:29:52;;;;;;;21.63;13.53;;;5.90;99.90;;;;;;4994575;28;20207;-80
2021/03/31 04:32:18;;;;;;;24.93;14.03;;;5.90;99.90;;;;;;4993413;28;20253;-80
2021/03/31 04:34:44;;;;;;;21.10;13.13;;;5.80;99.90;;;;;;4993181;28;20186;-80
2021/03/31 04:37:10;;;;;;;24.40;13.93;;;5.80;99.90;;;;;;4993054;28;20212;-81
2021/03/31 04:39:37;;;;;;;22.47;13.63;;;5.80;99.90;;;;;;4993138;28;20259;-80
2021/03/31 04:42:03;;;;;;;22.87;13.50;;;5.80;99.90;;;;;;4993220;28;20267;-80
2021/03/31 04:44:29;;;;;;;22.30;13.93;;;5.80;99.90;;;;;;4992689;28;20271;-79
2021/03/31 04:46:54;;;;;;;23.63;13.17;;;5.80;99.90;;;;;;4992975;28;20292;-78
2021/03/31 04:49:20;;;;;;;25.23;14.67;;;5.80;99.90;;;;;;4992837;28;20276;-78
2021/03/31 04:51:45;;;;;;;23.70;13.73;;;5.70;99.90;;;;;;4992785;28;20606;-78
2021/03/31 04:54:11;;;;;;;22.77;14.47;;;5.80;99.90;;;;;;4993030;28;20716;-78
2021/03/31 04:56:37;;;;;;;25.07;14.70;;;5.70;99.90;;;;;;4992523;28;20192;-78
2021/03/31 04:59:03;;;;;;;25.73;14.63;;;5.70;99.90;;;;;;4992576;28;20575;-78
2021/03/31 05:01:28;;;;;;;23.30;14.13;;;5.70;99.90;;;;;;5009031;28;20181;-78
2021/03/31 05:03:54;;;;;;;24.23;14.40;;;5.60;99.90;;;;;;4992435;28;20229;-78
2021/03/31 05:06:19;;;;;;;24.23;14.43;;;5.60;99.90;;;;;;4992469;28;20603;-78
2021/03/31 05:08:45;;;;;;;25.70;13.83;;;5.60;99.90;;;;;;4992424;28;20206;-78
2021/03/31 05:11:11;;;;;;;22.27;13.50;;;5.60;99.90;;;;;;5008810;28;20180;-79
2021/03/31 05:13:36;;;;;;;22.90;13.40;;;5.60;99.90;;;;;;4993749;28;20183;-78
2021/03/31 05:16:02;;;;;;;22.83;14.03;;;5.60;99.90;;;;;;4979121;28;20187;-79
2021/03/31 05:18:28;;;;;;;25.50;14.57;;;5.60;99.90;;;;;;4979533;28;20255;-78
2021/03/31 05:20:54;;;;;;;26.77;14.37;;;5.60;99.90;;;;;;4979240;28;20209;-78
2021/03/31 05:23:19;;;;;;;24.40;14.43;;;5.60;99.90;;;;;;4976779;28;20184;-78
2021/03/31 05:25:45;;;;;;;24.23;14.07;;;5.60;99.90;;;;;;4974825;28;20184;-80
2021/03/31 05:28:16;;;;;;;23.43;14.73;;;5.60;99.90;;;;;;4984119;28;20195;-81
2021/03/31 05:31:15;;;;;;;24.73;14.93;;;5.70;99.90;;;;;;5020997;28;20225;-82
2021/03/31 05:33:51;;;;;;;26.13;13.93;;;5.70;99.90;;;;;;5022711;28;20201;-80
2021/03/31 05:36:21;;;;;;;24.17;14.43;;;5.80;99.90;;;;;;5031371;28;20192;-80
2021/03/31 05:39:34;;;;;;;25.10;13.97;;;5.80;99.90;;;;;;5022079;28;20236;-85
2021/03/31 05:42:28;;;;;;;28.83;14.23;;;5.80;99.90;;;;;;5054704;28;20194;-84
2021/03/31 05:45:20;;;;;;;22.90;13.70;;;6.00;99.90;;;;;;5042441;28;20198;-84
2021/03/31 05:47:49;;;;;;;24.33;14.07;;;6.00;99.90;;;;;;4982872;28;20180;-83
2021/03/31 05:51:12;;;;;;;27.40;14.20;;;5.90;99.90;;;;;;5026786;28;20190;-84
2021/03/31 05:54:20;;;;;;;21.33;13.43;;;6.10;99.90;;;;;;5018425;28;20183;-84
2021/03/31 05:56:56;;;;;;;24.17;14.40;;;6.20;99.90;;;;;;5001877;28;20183;-85
2021/03/31 05:59:22;;;;;;;25.70;14.37;;;6.30;99.90;;;;;;5023298;23;20230;-78
2021/03/31 06:01:48;;;;;;;25.20;15.33;;;6.40;99.90;;;;;;4995100;28;20233;-78
2021/03/31 06:04:15;;;;;;;29.07;15.90;;;6.80;99.90;;;;;;5011491;28;20228;-78
2021/03/31 06:06:41;;;;;;;25.77;14.63;;;7.10;99.90;;;;;;4995092;28;20187;-78
2021/03/31 06:09:07;;;;;;;27.73;14.60;;;7.60;99.90;;;;;;5011558;28;20206;-80
2021/03/31 06:11:50;;;;;;;23.10;14.13;;;8.50;99.90;;;;;;5012639;28;20554;-81
2021/03/31 06:14:29;;;;;;;22.33;13.90;;;9.20;99.90;;;;;;4995149;28;20172;-82
2021/03/31 06:17:12;;;;;;;20.90;13.80;;;9.40;99.90;;;;;;4996007;28;20207;-81
2021/03/31 06:19:39;;;;;;;17.77;12.27;;;9.60;99.90;;;;;;4992355;28;20195;-82
2021/03/31 06:25:03;;;;;;;22.87;13.23;;;11.30;99.90;;;;;;5007704;28;20199;-82
2021/03/31 06:27:29;;;;;;;24.57;13.30;;;12.60;99.90;;;;;;5013666;28;20191;-82
2021/03/31 06:30:07;;;;;;;23.60;12.17;;;13.70;99.90;;;;;;5016445;28;20195;-84
2021/03/31 06:32:37;;;;;;;19.77;12.33;;;14.90;99.90;;;;;;4985865;28;20197;-84
2021/03/31 06:35:02;;;;;;;21.60;11.83;;;15.90;99.90;;;;;;4983888;28;20279;-83
2021/03/31 06:37:35;;;;;;;21.47;13.23;;;16.60;99.90;;;;;;4991146;28;20739;-82
2021/03/31 06:40:01;;;;;;;27.37;13.67;;;17.20;99.90;;;;;;4997848;28;20207;-82
2021/03/31 06:42:45;;;;;;;22.57;13.50;;;17.40;99.90;;;;;;4978084;28;20278;-81
2021/03/31 06:45:17;;;;;;;22.77;13.27;;;18.00;99.90;;;;;;5012957;28;20191;-81
2021/03/31 06:47:57;;;;;;;16.77;10.63;;;18.80;99.90;;;;;;5016075;28;20176;-82
2021/03/31 06:50:22;;;;;;;17.53;10.00;;;19.40;99.90;;;;;;4984869;28;20228;-81
2021/03/31 06:52:55;;;;;;;18.67;9.63;;;19.40;93.50;;;;;;4994197;28;20273;-81
2021/03/31 06:55:21;;;;;;;12.70;8.33;;;19.50;91.00;;;;;;5011653;28;20176;-81
2021/03/31 06:57:54;;;;;;;14.30;8.77;;;19.70;90.00;;;;;;5000646;28;20297;-81
2021/03/31 07:00:26;;;;;;;13.60;8.53;;;20.00;87.00;;;;;;4990678;28;20218;-81
2021/03/31 07:02:51;;;;;;;13.27;8.50;;;20.00;84.50;;;;;;5008556;28;20183;-81
2021/03/31 07:05:17;;;;;;;13.43;8.10;;;19.80;84.70;;;;;;4998310;28;20174;-81
2021/03/31 07:07:43;;;;;;;15.10;8.07;;;20.00;83.20;;;;;;5001851;28;20256;-82
2021/03/31 07:10:14;;;;;;;11.60;7.70;;;19.50;84.30;;;;;;4988792;28;20202;-82
2021/03/31 07:12:47;;;;;;;13.07;7.60;;;18.70;86.00;;;;;;5025585;28;20237;-82
2021/03/31 07:15:20;;;;;;;11.83;6.77;;;17.70;87.70;;;;;;4997325;28;20183;-82
2021/03/31 07:17:51;;;;;;;12.13;7.90;;;17.10;88.90;;;;;;4985479;28;20588;-84
2021/03/31 07:20:16;;;;;;;13.00;7.50;;;16.50;89.60;;;;;;5009765;28;20683;-85
2021/03/31 07:22:42;;;;;;;12.20;7.70;;;16.00;91.10;;;;;;4984002;28;20171;-83
2021/03/31 07:25:09;;;;;;;15.53;7.50;;;15.50;92.70;;;;;;5004712;28;20230;-81
2021/03/31 07:27:35;;;;;;;11.33;7.33;;;15.10;94.90;;;;;;5000565;28;20245;-83
2021/03/31 07:32:40;;;;;;;12.10;7.50;;;15.00;97.50;;;;;;4998499;28;20194;-82
2021/03/31 07:35:06;;;;;;;14.73;7.10;;;15.10;98.00;;;;;;5002018;28;20242;-80
2021/03/31 07:37:31;;;;;;;12.03;7.37;;;15.20;99.90;;;;;;4993990;28;20721;-80
2021/03/31 07:39:58;;;;;;;12.40;7.43;;;15.30;99.50;;;;;;4988859;28;20187;-82
2021/03/31 07:42:24;;;;;;;10.43;7.03;;;15.40;98.80;;;;;;4995937;28;20176;-85
2021/03/31 07:44:51;;;;;;;12.93;7.53;;;15.60;98.10;;;;;;4987370;28;20655;-84
2021/03/31 07:47:17;;;;;;;13.20;7.27;;;15.70;99.60;;;;;;4980763;28;20179;-84
2021/03/31 07:49:42;;;;;;;12.80;7.33;;;15.80;99.90;;;;;;4999102;28;20203;-84
2021/03/31 07:52:08;;;;;;;10.80;7.60;;;16.00;98.40;;;;;;5009288;28;20176;-80
2021/03/31 07:54:33;;;;;;;12.47;7.00;;;16.10;99.90;;;;;;4979932;28;20646;-79
2021/03/31 07:57:23;;;;;;;11.67;7.17;;;16.40;99.90;;;;;;5005074;28;20282;-81
2021/03/31 07:59:49;;;;;;;10.20;6.87;;;16.60;99.90;;;;;;5018075;28;20663;-80
2021/03/31 08:02:15;;;;;;;11.53;7.77;;;16.90;97.40;;;;;;4992604;28;20222;-80
2021/03/31 08:04:40;;;;;;;13.73;8.07;;;16.90;98.30;;;;;;5024940;28;20207;-83
2021/03/31 08:07:22;;;;;;;12.27;7.60;;;17.10;98.50;;;;;;5017067;28;20201;-80
2021/03/31 08:09:48;;;;;;;12.40;7.77;;;17.20;96.60;;;;;;4998927;28;20666;-80
2021/03/31 08:12:43;;;;;;;13.53;7.67;;;17.20;95.30;;;;;;4999421;28;20239;-81
2021/03/31 08:15:09;;;;;;;14.10;7.63;;;17.30;95.80;;;;;;5003008;28;20200;-81
2021/03/31 08:17:35;;;;;;;12.20;8.33;;;17.40;98.00;;;;;;4999462;28;20214;-81
2021/03/31 08:20:00;;;;;;;14.33;7.93;;;17.60;97.10;;;;;;4983502;28;20583;-81
2021/03/31 08:22:27;;;;;;;10.97;7.50;;;17.80;97.00;;;;;;5000732;28;20183;-79
2021/03/31 08:24:57;;;;;;;15.57;8.17;;;17.90;97.30;;;;;;5014743;28;20537;-83
2021/03/31 08:27:23;;;;;;;13.37;8.23;;;18.20;97.00;;;;;;5010797;28;20292;-82
2021/03/31 08:29:56;;;;;;;14.53;8.33;;;18.30;96.50;;;;;;5015238;28;20293;-81
2021/03/31 08:32:24;;;;;;;13.40;8.60;;;18.40;96.60;;;;;;5014733;28;20183;-80
2021/03/31 08:34:49;;;;;;;13.77;8.30;;;18.60;96.60;;;;;;4995953;28;20610;-81
2021/03/31 08:37:27;;;;;;;11.37;8.10;;;18.70;96.20;;;;;;5001477;28;20203;-81
2021/03/31 08:39:52;;;;;;;13.97;8.63;;;18.90;97.50;;;;;;4999504;28;20202;-82
2021/03/31 08:42:18;;;;;;;14.10;8.40;;;19.20;95.90;;;;;;4982440;28;20176;-82
2021/03/31 08:44:52;;;;;;;14.40;8.23;;;19.40;94.10;;;;;;5008208;28;20217;-82
2021/03/31 08:47:21;;;;;;;14.23;8.40;;;19.50;94.00;;;;;;5015762;28;20271;-81
2021/03/31 08:49:51;;;;;;;14.97;8.37;;;19.70;94.90;;;;;;5009343;28;20203;-82
2021/03/31 08:52:20;;;;;;;14.93;8.07;;;20.10;92.40;;;;;;4993062;28;20254;-81
2021/03/31 08:54:52;;;;;;;11.23;8.03;;;20.40;91.50;;;;;;5009420;28;20198;-82
2021/03/31 08:57:22;;;;;;;14.60;8.07;;;20.70;93.90;;;;;;5031083;28;20195;-82
2021/03/31 08:59:49;;;;;;;12.00;8.00;;;21.00;91.60;;;;;;5005291;28;20229;-83
2021/03/31 09:02:23;;;;;;;13.03;8.47;;;21.30;86.80;;;;;;5015262;28;20635;-84
2021/03/31 09:04:52;;;;;;;16.30;8.00;;;21.50;84.80;;;;;;4999077;28;20202;-82
2021/03/31 09:07:18;;;;;;;14.03;8.97;;;21.60;83.80;;;;;;5002843;28;20211;-82
2021/03/31 09:09:44;;;;;;;14.53;8.60;;;22.00;81.30;;;;;;5027557;28;20250;-82
2021/03/31 09:12:12;;;;;;;15.97;8.80;;;22.80;86.10;;;;;;4983335;28;20195;-83
2021/03/31 09:14:40;;;;;;;13.37;8.20;;;24.00;81.20;;;;;;4981636;28;20202;-81
2021/03/31 09:17:07;;;;;;;21.83;8.87;;;24.60;71.00;;;;;;4991384;28;20227;-83
2021/03/31 09:19:38;;;;;;;18.47;8.40;;;25.10;69.40;;;;;;5016434;28;20294;-83
2021/03/31 09:22:32;;;;;;;16.10;8.57;;;24.90;67.10;;;;;;4987948;28;20682;-81
2021/03/31 09:25:05;;;;;;;14.97;8.37;;;25.40;64.60;;;;;;4984410;28;20701;-82
2021/03/31 09:27:32;;;;;;;15.00;8.87;;;25.40;62.20;;;;;;5012295;28;20191;-81
2021/03/31 09:30:01;;;;;;;20.90;8.50;;;26.00;61.60;;;;;;5010602;28;20736;-81
2021/03/31 09:32:32;;;;;;;16.73;8.57;;;27.00;60.90;;;;;;4997412;28;20184;-81
2021/03/31 09:35:12;;;;;;;14.73;8.53;;;27.20;58.10;;;;;;4970575;28;20183;-80
2021/03/31 09:37:38;;;;;;;18.67;8.87;;;27.10;57.60;;;;;;5002532;28;20203;-80
2021/03/31 09:40:05;;;;;;;15.77;9.37;;;26.50;58.30;;;;;;4997014;28;20651;-80
2021/03/31 09:42:34;;;;;;;17.40;8.73;;;26.70;59.60;;;;;;4991713;28;20223;-81
2021/03/31 09:45:00;;;;;;;13.87;8.77;;;26.90;58.10;;;;;;5008366;28;20660;-81
2021/03/31 09:47:28;;;;;;;17.17;9.90;;;27.20;56.90;;;;;;5000034;28;20238;-81
2021/03/31 09:49:54;;;;;;;16.83;9.67;;;26.20;57.10;;;;;;5011921;28;20191;-82
2021/03/31 09:52:29;;;;;;;14.17;9.13;;;25.90;58.30;;;;;;4989251;28;20660;-81
2021/03/31 09:54:55;;;;;;;17.30;9.10;;;26.80;58.70;;;;;;4999866;28;20182;-79
2021/03/31 09:57:25;;;;;;;16.40;8.37;;;26.90;58.80;;;;;;4979566;28;20211;-82
2021/03/31 09:59:51;;;;;;;24.43;10.07;;;26.80;58.10;;;;;;5000435;28;20215;-80
2021/03/31 10:02:16;;;;;;;14.93;8.43;;;27.70;58.70;;;;;;5008902;28;20179;-78
2021/03/31 10:04:42;;;;;;;16.27;9.43;;;28.40;57.60;;;;;;5009365;28;20549;-81
2021/03/31 10:07:18;;;;;;;15.67;8.87;;;28.40;54.70;;;;;;5004761;28;20616;-82
2021/03/31 10:09:46;;;;;;;17.17;9.07;;;27.50;54.80;;;;;;4987568;28;20234;-80
2021/03/31 10:12:12;;;;;;;16.20;9.37;;;27.00;56.00;;;;;;4981620;28;20274;-80
2021/03/31 10:14:50;;;;;;;61.53;11.97;;;27.10;56.70;;;;;;4981012;28;20210;-81
2021/03/31 10:17:17;;;;;;;16.63;9.27;;;27.00;61.00;;;;;;4996859;28;20227;-81
2021/03/31 10:19:42;;;;;;;14.90;8.50;;;27.10;59.90;;;;;;4983675;28;20198;-80
2021/03/31 10:22:08;;;;;;;20.80;9.63;;;27.30;59.90;;;;;;4999195;28;20205;-80
2021/03/31 10:24:38;;;;;;;16.43;9.27;;;27.10;58.00;;;;;;5005665;28;20226;-80
2021/03/31 10:27:04;;;;;;;19.60;9.30;;;26.60;56.70;;;;;;4985407;28;20182;-80
2021/03/31 10:29:30;;;;;;;18.53;8.90;;;26.20;59.90;;;;;;4981110;28;20671;-82
2021/03/31 10:31:58;;;;;;;15.00;9.60;;;26.00;59.10;;;;;;5002958;28;20175;-81
2021/03/31 10:34:23;;;;;;;18.07;9.47;;;26.00;60.60;;;;;;5007702;28;20234;-81
2021/03/31 10:37:03;;;;;;;14.80;8.77;;;25.90;59.20;;;;;;4980181;28;20187;-80
2021/03/31 10:50:49;;;;;;;15.03;9.10;;;26.00;60.10;;;;;;4991447;28;20203;-81
2021/03/31 10:53:14;;;;;;;14.90;9.75;;;26.20;61.70;;;;;;4995857;28;20279;-80
2021/03/31 10:55:42;;;;;;;16.23;9.83;;;26.40;63.20;;;;;;4995577;28;20259;-80
2021/03/31 10:58:08;;;;;;;16.53;9.17;;;26.20;56.70;;;;;;4996660;28;20199;-79
2021/03/31 11:00:35;;;;;;;16.03;9.17;;;25.80;58.60;;;;;;4995864;28;20212;-80
2021/03/31 11:03:01;;;;;;;15.27;8.40;;;25.90;63.80;;;;;;4996637;28;20186;-80
2021/03/31 11:05:26;;;;;;;16.97;10.00;;;26.00;64.50;;;;;;4995908;28;20180;-79
2021/03/31 11:07:52;;;;;;;14.98;9.55;;;26.20;59.20;;;;;;4979477;28;20182;-80
2021/03/31 11:10:18;;;;;;;16.52;9.70;;;26.10;58.30;;;;;;5012183;28;20199;-80
2021/03/31 11:12:43;;;;;;;15.20;9.73;;;26.00;62.70;;;;;;4997434;28;20191;-80
2021/03/31 11:15:12;;;;;;;16.27;9.70;;;26.10;58.70;;;;;;5015704;28;20179;-80
2021/03/31 11:20:26;;;;;;;16.60;10.20;;;26.10;58.60;;;;;;4986067;28;20299;-81
2021/03/31 11:28:04;;;;;;;15.63;9.82;;;26.10;57.60;;;;;;4997319;28;20230;-80
2021/03/31 11:30:29;;;;;;;15.55;10.00;;;26.10;61.40;;;;;;4981818;28;20303;-79
2021/03/31 11:32:55;;;;;;;14.15;10.02;;;26.30;60.80;;;;;;4982994;28;20210;-79
2021/03/31 11:35:21;;;;;;;17.92;9.90;;;26.60;58.20;;;;;;4982925;28;20173;-80
2021/03/31 11:37:46;;;;;;;17.80;11.07;;;26.30;58.20;;;;;;4985641;28;20204;-80
2021/03/31 11:40:12;;;;;;;15.57;10.60;;;26.40;57.00;;;;;;4999500;28;20676;-79
2021/03/31 11:42:37;;;;;;;18.98;10.63;;;26.50;59.60;;;;;;5000397;28;20176;-79
2021/03/31 11:45:04;;;;;;;13.85;10.40;;;26.70;63.30;;;;;;5017874;28;20262;-78
2021/03/31 11:47:29;;;;;;;16.60;10.90;;;26.40;57.20;;;;;;5008092;28;20183;-79
2021/03/31 11:49:55;;;;;;;17.83;10.40;;;26.00;59.40;;;;;;4991740;28;20330;-79
2021/03/31 11:52:22;;;;;;;15.43;11.13;;;26.10;58.80;;;;;;5013103;28;20179;-79
2021/03/31 11:54:47;;;;;;;15.70;10.15;;;26.30;61.10;;;;;;5003138;28;20168;-79
2021/03/31 11:57:13;;;;;;;18.87;10.87;;;26.70;64.60;;;;;;5035430;28;20233;-79
2021/03/31 11:59:38;;;;;;;17.10;11.20;;;26.80;57.30;;;;;;5002061;28;20202;-80
2021/03/31 12:02:04;;;;;;;18.43;11.70;;;26.70;57.80;;;;;;5021667;28;20187;-79
2021/03/31 12:04:29;;;;;;;16.80;11.05;;;26.60;59.60;;;;;;5021343;28;20175;-80
2021/03/31 12:07:02;;;;;;;16.40;11.32;;;26.50;57.20;;;;;;5020487;28;20183;-81
2021/03/31 12:09:27;;;;;;;15.43;10.10;;;26.50;59.40;;;;;;4986654;28;20204;-80
2021/03/31 12:11:53;;;;;;;16.50;11.20;;;26.70;61.80;;;;;;4964815;28;20212;-81
2021/03/31 12:14:19;;;;;;;17.58;11.30;;;27.00;61.40;;;;;;4995650;28;20526;-79
2021/03/31 12:16:44;;;;;;;18.35;11.63;;;27.20;59.00;;;;;;4999441;28;20167;-78
2021/03/31 12:19:10;;;;;;;17.38;10.80;;;27.40;56.40;;;;;;5000091;28;20236;-79
2021/03/31 12:21:35;;;;;;;13.88;9.77;;;27.50;60.90;;;;;;5000908;28;20190;-80
2021/03/31 12:24:01;;;;;;;16.88;10.57;;;27.80;61.50;;;;;;5003887;28;20184;-79
2021/03/31 12:26:27;;;;;;;13.15;10.07;;;27.90;57.10;;;;;;5003960;28;20191;-79
2021/03/31 12:28:57;;;;;;;12.65;8.35;;;28.10;59.20;;;;;;5000052;28;20183;-79
2021/03/31 12:31:23;;;;;;;14.35;9.00;;;28.10;55.80;;;;;;5001243;28;20168;-80
2021/03/31 12:33:48;;;;;;;13.07;8.68;;;28.30;55.40;;;;;;4977856;28;20191;-80
2021/03/31 12:36:14;;;;;;;15.27;10.02;;;27.80;54.10;;;;;;4980880;28;20180;-79
2021/03/31 12:38:39;;;;;;;12.27;8.98;;;27.00;53.50;;;;;;4998987;28;20204;-78
2021/03/31 12:41:05;;;;;;;14.15;9.75;;;26.90;55.80;;;;;;4982455;28;20656;-78
2021/03/31 12:43:31;;;;;;;12.87;9.47;;;27.10;56.50;;;;;;4998556;28;20176;-78
2021/03/31 12:45:57;;;;;;;11.20;8.80;;;26.90;56.80;;;;;;4966314;28;20172;-79
2021/03/31 12:48:22;;;;;;;16.23;9.70;;;27.10;59.10;;;;;;4983998;28;20242;-79
2021/03/31 12:50:51;;;;;;;15.57;9.43;;;27.20;56.40;;;;;;5002763;28;20207;-78
2021/03/31 12:53:29;;;;;;;14.00;9.32;;;27.30;56.40;;;;;;4999680;28;20188;-78
2021/03/31 12:55:56;;;;;;;15.25;10.25;;;27.30;54.80;;;;;;5000053;28;20176;-78
2021/03/31 12:58:22;;;;;;;17.25;9.75;;;27.20;55.20;;;;;;5017403;28;20574;-78
2021/03/31 13:00:50;;;;;;;12.30;8.88;;;26.90;54.80;;;;;;5013428;28;20219;-80
2021/03/31 13:03:15;;;;;;;12.75;8.80;;;27.00;57.60;;;;;;4997426;28;20180;-79
2021/03/31 13:05:41;;;;;;;11.88;8.43;;;27.10;56.90;;;;;;4980601;28;20175;-78
2021/03/31 13:08:10;;;;;;;15.32;8.70;;;27.20;56.60;;;;;;4997120;28;20175;-79
2021/03/31 13:10:36;;;;;;;12.70;8.82;;;27.30;56.80;;;;;;5014454;28;20234;-79
2021/03/31 13:13:09;;;;;;;11.02;7.47;;;27.40;55.30;;;;;;4998216;28;20533;-78
2021/03/31 13:21:58;;;;;;;12.25;7.95;;;27.50;57.30;;;;;;4998003;28;20219;-79
2021/03/31 13:26:27;;;;;;;9.43;6.53;;;27.30;54.20;;;;;;4999178;28;20195;-78
2021/03/31 13:31:35;;;;;;;11.18;6.80;;;26.90;54.10;;;;;;4999628;28;20185;-78
2021/03/31 13:34:06;;;;;;;12.07;6.90;;;26.60;54.40;;;;;;4998333;28;20175;-79
2021/03/31 13:36:38;;;;;;;14.45;7.32;;;26.50;55.90;;;;;;4981837;28;20229;-78
2021/03/31 13:39:12;;;;;;;7.80;6.17;;;26.60;55.70;;;;;;4982173;28;20211;-78
2021/03/31 13:41:37;;;;;;;11.93;6.27;;;26.50;53.80;;;;;;4998145;28;20271;-81
2021/03/31 13:44:03;;;;;;;10.32;6.72;;;26.70;55.50;;;;;;4980634;28;20235;-86
2021/03/31 13:46:29;;;;;;;9.80;6.83;;;26.80;53.80;;;;;;4981695;28;20179;-82
2021/03/31 13:49:03;;;;;;;10.10;6.77;;;26.80;55.30;;;;;;5016155;28;20246;-82